Latest Weather Observations for Hobart Airport

IDT60801

Issued at 9:31 pm EST Saturday 4 July 2015 (issued every 30 minutes, with the page automatically refreshed every 10 minutes)

About weather observations | Map of weather stations | Latest weather observations for TAS | Other Formats
Station Details ID: 094008 Name: HOBART AIRPORT Lat: -42.83 Lon: 147.50 Height: 4.0 m
Data from the previous 72 hours. | See also: Recent months at Hobart Airport
Date/Time
EST
Temp
°C
App
Temp
°C
Dew
Point
Rel
Hum
%
Delta-T
°C
Wind Press
QNH
hPa
Press
MSL
hPa
Rain
since 9 am
mm
Dir
 
Spd
km/h
Gust
km/h
Spd
kts
Gust
kts
04/09:00pm 8.6 4.0 1.5 61 2.9 NNW 15 22 8 12 1014.1 1014.2 0.0
04/08:30pm 9.0 4.5 2.1 62 2.9 NW 15 26 8 14 1014.0 1014.1 0.0
04/08:00pm 8.9 4.3 1.6 60 3.0 NW 15 22 8 12 1013.8 1013.9 0.0
04/07:30pm 8.6 4.3 1.0 59 3.1 NW 13 17 7 9 1013.8 1013.9 0.0
04/07:00pm 8.5 4.2 0.8 58 3.1 NW 13 19 7 10 1013.8 1013.9 0.0
04/06:30pm 7.9 5.9 0.0 57 3.1 CALM 0 2 0 1 1013.5 1013.6 0.0
04/05:30pm 9.9 4.6 -0.4 48 4.1 WNW 17 24 9 13 1012.8 1012.8 0.0
04/05:00pm 10.3 4.1 -0.5 47 4.3 WNW 22 30 12 16 1012.7 1012.7 0.0
04/04:30pm 10.7 4.1 -0.5 46 4.5 WNW 24 30 13 16 1012.5 1012.5 0.0
04/04:00pm 11.4 4.8 -0.1 45 4.7 NW 24 32 13 17 1012.3 1012.3 0.0
04/03:30pm 12.3 6.3 -1.5 38 5.5 WNW 20 32 11 17 1012.1 1012.1 0.0
04/03:00pm 12.7 5.9 -1.6 37 5.7 W 24 33 13 18 1011.7 1011.7 0.0
04/02:30pm 12.9 4.3 -2.4 34 6.0 WNW 33 44 18 24 1011.3 1011.3 0.0
04/02:00pm 13.7 7.1 -0.6 37 5.9 WNW 24 33 13 18 1011.0 1011.0 0.0
04/01:30pm 14.1 6.4 0.1 38 5.9 WNW 30 39 16 21 1010.9 1010.9 0.0
04/01:00pm 13.7 5.5 -1.0 36 6.0 W 32 41 17 22 1010.7 1010.7 0.0
04/12:30pm 14.0 5.6 -1.2 35 6.2 WNW 33 46 18 25 1010.5 1010.5 0.0
04/12:00pm 14.2 6.4 -0.5 36 6.1 WNW 30 41 16 22 1010.6 1010.6 0.0
04/11:30am 13.9 6.7 0.7 40 5.6 W 28 43 15 23 1011.0 1011.0 0.0
04/11:00am 13.8 5.8 0.6 40 5.6 WNW 32 43 17 23 1011.2 1011.2 0.0
04/10:41am 14.1 6.5 0.7 40 5.7 W 30 50 16 27 1011.0 1011.0 0.0
04/10:30am 14.3 7.3 2.0 43 5.4 W 28 39 15 21 1011.0 1011.0 0.0
04/09:30am 13.5 7.3 4.4 54 4.2 WNW 26 37 14 20 1010.2 1010.2 0.0
04/09:00am 12.5 7.1 6.2 65 3.0 WNW 24 30 13 16 1010.0 1010.0 0.0
04/08:30am 11.8 9.6 6.3 69 2.6 SW 7 19 4 10 1009.9 1009.9 0.0
04/08:00am 11.8 7.3 6.3 69 2.6 WNW 19 26 10 14 1009.6 1009.6 0.0
04/07:30am 11.7 6.7 6.4 70 2.5 WNW 22 30 12 16 1009.3 1009.3 0.0
04/07:00am 10.2 7.8 6.8 79 1.6 NW 9 13 5 7 1009.3 1009.3 0.0
04/06:30am 9.4 7.0 6.8 84 1.2 NW 9 13 5 7 1009.0 1009.0 0.0
04/05:30am 9.5 6.5 5.8 78 1.7 N 11 15 6 8 1009.0 1009.0 0.0
04/05:00am 10.4 6.5 5.4 71 2.3 NNW 15 20 8 11 1008.8 1008.8 0.0
04/04:30am 10.1 6.0 4.3 67 2.6 NNW 15 19 8 10 1008.5 1008.5 0.0
04/04:00am 9.5 4.9 3.8 67 2.5 NNW 17 22 9 12 1008.7 1008.7 0.0
04/03:30am 9.0 4.9 4.2 72 2.1 N 15 22 8 12 1009.3 1009.3 0.0
04/03:00am 10.1 4.9 3.5 63 2.9 NW 20 26 11 14 1009.6 1009.6 0.0
04/02:30am 9.9 4.9 3.5 64 2.8 NW 19 26 10 14 1010.0 1010.0 0.0
04/02:00am 9.9 4.8 2.9 62 3.0 NNW 19 28 10 15 1010.6 1010.6 0.0
04/01:30am 10.1 5.3 2.6 59 3.2 NNW 17 24 9 13 1010.8 1010.8 0.0
04/01:00am 9.6 3.5 2.6 61 3.0 NNW 24 35 13 19 1010.8 1010.8 0.0
04/12:30am 9.7 3.9 2.1 59 3.2 NNW 22 30 12 16 1011.6 1011.6 0.0
 
Date/Time
EST
Temp
°C
App
Temp
°C
Dew
Point
Rel
Hum
%
Delta-T
°C
Wind Press
QNH
hPa
Press
MSL
hPa
Rain
since 9 am
mm
Dir
 
Spd
km/h
Gust
km/h
Spd
kts
Gust
kts
03/11:30pm 9.7 3.0 1.5 56 3.4 NNW 26 35 14 19 1012.6 1012.6 0.0
03/11:00pm 9.3 3.4 1.6 58 3.2 NNW 22 35 12 19 1012.9 1012.9 0.0
03/10:30pm 9.4 2.7 1.4 57 3.3 NNW 26 35 14 19 1013.3 1013.4 0.0
03/10:00pm 9.2 2.9 1.4 58 3.2 NW 24 33 13 18 1013.6 1013.7 0.0
03/09:30pm 9.2 1.2 1.4 58 3.2 NW 33 44 18 24 1013.8 1013.9 0.0
03/09:00pm 9.0 1.5 1.5 59 3.1 NW 30 37 16 20 1014.0 1014.1 0.0
03/08:30pm 9.1 2.0 1.6 59 3.1 NW 28 37 15 20 1014.2 1014.3 0.0
03/08:00pm 8.7 3.2 1.7 61 2.9 NNW 20 30 11 16 1014.7 1014.8 0.0
03/07:30pm 8.7 3.7 1.4 60 3.0 NNW 17 24 9 13 1015.1 1015.2 0.0
03/07:00pm 8.9 1.8 1.6 60 3.0 NNW 28 37 15 20 1015.2 1015.3 0.0
03/06:30pm 9.2 3.3 1.4 58 3.2 NW 22 30 12 16 1015.6 1015.7 0.0
03/06:00pm 9.1 3.8 1.9 60 3.0 NNW 19 28 10 15 1015.8 1015.9 0.0
03/05:30pm 9.6 4.1 1.7 58 3.3 NNW 20 30 11 16 1015.9 1016.0 0.0
03/05:00pm 10.2 4.2 1.0 53 3.8 NNW 22 32 12 17 1015.9 1016.0 0.0
03/04:30pm 10.5 5.1 1.4 53 3.8 NW 19 28 10 15 1015.8 1015.9 0.0
03/04:00pm 10.4 6.5 1.2 53 3.8 NNW 11 15 6 8 1016.1 1016.2 0.0
03/03:30pm 10.4 5.5 1.8 55 3.6 NW 17 22 9 12 1016.5 1016.6 0.0
03/03:00pm 11.0 5.0 0.8 49 4.2 NW 22 32 12 17 1016.8 1016.9 0.0
03/02:30pm 11.7 6.0 0.6 46 4.6 NW 20 28 11 15 1017.1 1017.2 0.0
03/02:00pm 11.5 5.0 0.6 47 4.5 NW 24 32 13 17 1017.5 1017.6 0.0
03/01:30pm 11.6 6.6 1.4 49 4.3 NNW 17 26 9 14 1018.2 1018.3 0.0
03/01:00pm 11.3 5.3 1.3 50 4.2 NNW 22 32 12 17 1018.9 1019.0 0.0
03/12:30pm 10.8 5.2 1.2 51 4.0 NNW 20 33 11 18 1019.1 1019.2 0.0
03/12:00pm 10.5 3.7 1.1 52 3.9 NW 26 33 14 18 1019.8 1019.9 0.0
03/11:30am 9.9 3.1 0.8 53 3.7 NW 26 33 14 18 1020.2 1020.3 0.0
03/11:00am 9.7 3.6 0.6 53 3.7 NW 22 32 12 17 1020.9 1021.0 0.0
03/10:30am 8.9 2.9 1.0 57 3.2 NNW 22 33 12 18 1021.4 1021.5 0.0
03/10:00am 8.4 2.9 0.6 58 3.1 NNW 19 28 10 15 1021.5 1021.6 0.0
03/09:30am 7.8 1.3 0.5 60 2.9 NW 24 33 13 18 1021.7 1021.8 0.0
03/09:00am 7.2 1.5 0.6 63 2.6 NNW 20 32 11 17 1021.8 1021.9 0.0
03/08:30am 6.4 0.7 0.5 66 2.3 NNW 20 32 11 17 1021.9 1022.0 0.0
03/08:00am 5.8 0.3 0.4 68 2.1 NW 19 26 10 14 1022.1 1022.2 0.0
03/07:30am 5.9 0.1 -0.1 65 2.3 NW 20 30 11 16 1022.0 1022.1 0.0
03/07:00am 5.4 0.2 0.2 69 2.0 NNW 17 26 9 14 1021.8 1021.9 0.0
03/06:30am 4.4 0.6 -0.4 71 1.8 NNW 9 15 5 8 1021.6 1021.7 0.0
03/06:00am 3.7 -0.1 -0.4 74 1.5 NNW 9 13 5 7 1021.6 1021.7 0.0
03/05:30am 2.0 -1.5 -1.4 78 1.2 N 7 11 4 6 1021.5 1021.6 0.0
03/05:00am 0.6 -3.3 -1.3 87 0.7 NNW 9 13 5 7 1021.6 1021.7 0.0
03/04:30am 3.5 -1.0 -0.3 76 1.4 NNW 13 17 7 9 1021.6 1021.7 0.0
03/04:00am 3.6 -0.8 0.1 78 1.3 NNW 13 19 7 10 1021.9 1022.0 0.0
03/03:30am 3.7 -0.4 -0.4 74 1.5 NW 11 13 6 7 1022.1 1022.2 0.0
03/03:00am 0.8 -2.7 -1.5 85 0.8 N 7 9 4 5 1022.7 1022.8 0.0
03/02:30am 2.0 -1.8 -1.1 80 1.1 N 9 11 5 6 1022.7 1022.8 0.0
03/02:00am 2.5 -1.0 -1.5 75 1.4 SW 7 13 4 7 1022.8 1022.9 0.0
03/01:30am 2.2 -1.3 -1.2 78 1.2 W 7 9 4 5 1022.7 1022.8 0.0
03/01:00am 1.6 -1.9 -1.2 82 1.0 NW 7 9 4 5 1022.7 1022.8 0.0
03/12:30am 1.7 -1.9 -1.8 77 1.2 NNW 7 9 4 5 1022.6 1022.7 0.0
03/12:00am 4.3 0.9 -0.9 69 1.9 W 7 9 4 5 1022.7 1022.8 0.0
 
Date/Time
EST
Temp
°C
App
Temp
°C
Dew
Point
Rel
Hum
%
Delta-T
°C
Wind Press
QNH
hPa
Press
MSL
hPa
Rain
since 9 am
mm
Dir
 
Spd
km/h
Gust
km/h
Spd
kts
Gust
kts
02/11:30pm 3.8 0.4 -0.5 73 1.6 WNW 7 13 4 7 1022.8 1022.9 0.0
02/11:00pm 4.5 0.3 -0.6 69 1.9 NNW 11 15 6 8 1022.6 1022.7 0.0
02/10:30pm 4.1 0.4 -0.2 73 1.6 N 9 11 5 6 1022.6 1022.7 0.0
02/10:00pm 3.8 -0.4 -0.9 71 1.7 NW 11 15 6 8 1022.2 1022.3 0.0
02/09:30pm 4.9 0.3 -1.1 65 2.2 W 13 19 7 10 1022.1 1022.2 0.0
02/09:00pm 5.5 0.5 -1.3 61 2.5 WSW 15 26 8 14 1021.7 1021.8 0.0
02/08:30pm 4.9 0.3 -1.4 64 2.3 W 13 17 7 9 1021.4 1021.5 0.0
02/08:00pm 5.7 0.3 -1.3 61 2.6 W 17 22 9 12 1021.1 1021.2 0.0
02/07:30pm 6.4 1.3 -1.7 56 3.0 WSW 15 24 8 13 1020.9 1021.0 0.0
02/07:00pm 6.2 0.8 -1.3 58 2.8 WSW 17 26 9 14 1020.4 1020.5 0.0
02/06:30pm 6.3 0.3 -1.9 56 3.0 WSW 20 33 11 18 1019.7 1019.8 0.0
02/06:00pm 6.9 -0.6 -1.7 54 3.2 WSW 28 41 15 22 1019.3 1019.4 0.0
02/05:30pm 7.0 -0.5 -1.2 56 3.1 SW 28 50 15 27 1019.2 1019.3 0.0
02/05:29pm 6.9 -0.5 -1.0 57 3.0 SW 28 50 15 27 1019.2 1019.3 0.0
02/05:00pm 7.0 0.0 -0.6 58 2.9 SW 26 39 14 21 1018.6 1018.7 0.0
02/04:30pm 7.3 0.3 -0.2 59 2.9 WSW 26 44 14 24 1018.2 1018.3 0.0
02/04:00pm 7.6 0.2 -0.4 57 3.1 SW 28 46 15 25 1017.8 1017.9 0.0
02/03:58pm 7.6 0.2 -0.4 57 3.1 SW 28 46 15 25 1017.7 1017.8 0.0
02/03:30pm 8.1 1.5 -0.4 55 3.3 SW 24 32 13 17 1017.3 1017.4 0.0
02/03:00pm 8.2 0.4 -0.5 54 3.4 SW 30 48 16 26 1016.3 1016.4 0.0
02/02:46pm 8.7 0.7 0.5 56 3.3 SW 32 50 17 27 1016.1 1016.2 0.0
02/02:30pm 8.6 1.6 -0.3 53 3.5 SW 26 43 14 23 1015.8 1015.9 0.0
02/02:00pm 8.5 1.1 -0.4 53 3.5 SW 28 41 15 22 1015.3 1015.4 0.0
02/01:30pm 8.5 2.0 0.2 56 3.3 SW 24 33 13 18 1015.0 1015.1 0.0
02/01:00pm 9.2 3.0 -0.1 52 3.7 WSW 22 32 12 17 1014.7 1014.8 0.0
02/12:30pm 8.3 2.8 1.7 63 2.7 WSW 20 30 11 16 1014.3 1014.4 0.0
02/12:00pm 8.3 1.9 0.9 59 3.0 SW 24 32 13 17 1014.2 1014.3 0.0
02/11:30am 8.7 2.2 0.2 55 3.4 WSW 24 37 13 20 1013.7 1013.8 0.0
02/11:00am 9.0 3.1 -0.7 50 3.8 W 20 33 11 18 1013.3 1013.4 0.0
02/10:30am 8.7 3.0 -1.1 50 3.8 W 19 28 10 15 1012.9 1012.9 0.0
02/10:00am 7.8 1.8 1.1 62 2.7 NW 22 30 12 16 1012.4 1012.4 0.0
02/09:30am 6.9 1.3 1.2 67 2.3 NNW 20 30 11 16 1011.6 1011.6 0.0
02/09:00am 7.1 1.9 -0.1 60 2.8 NW 17 24 9 13 1011.6 1011.6 0.4
02/08:30am 6.4 -0.2 -0.7 60 2.7 WNW 24 30 13 16 1010.8 1010.8 0.4
02/08:00am 6.3 -0.4 -0.8 60 2.7 WNW 24 35 13 19 1010.0 1010.0 0.4
02/07:30am 5.0 1.4 0.9 75 1.6 NNE 9 15 5 8 1010.1 1010.1 0.4
02/07:00am 5.6 0.8 0.2 68 2.1 W 15 19 8 10 1009.5 1009.5 0.4
02/06:30am 6.4 0.8 0.0 63 2.5 W 19 26 10 14 1008.5 1008.5 0.4
02/06:00am 5.2 0.3 -0.3 67 2.1 W 15 20 8 11 1008.4 1008.4 0.4
02/05:30am 6.0 -0.6 -0.6 62 2.5 W 24 30 13 16 1007.5 1007.5 0.4
02/05:00am 6.1 -0.5 -0.7 62 2.6 WNW 24 32 13 17 1007.2 1007.2 0.4
02/04:30am 6.5 1.2 -0.9 59 2.8 WNW 17 28 9 15 1006.9 1006.9 0.4
02/04:00am 6.9 -0.6 -1.3 56 3.1 WNW 28 37 15 20 1006.4 1006.4 0.4
02/03:30am 7.1 -0.4 -1.3 55 3.2 WNW 28 39 15 21 1006.4 1006.4 0.4
02/03:00am 6.6 0.8 -0.1 62 2.6 W 20 28 11 15 1006.6 1006.6 0.4
02/02:30am 6.9 1.8 0.6 64 2.5 WSW 17 26 9 14 1006.7 1006.7 0.4
02/02:00am 6.1 1.1 1.6 73 1.8 WSW 17 22 9 12 1006.5 1006.5 0.4
02/01:30am 5.9 1.0 2.0 76 1.6 W 17 22 9 12 1006.2 1006.2 0.4
02/01:00am 7.3 -0.7 1.7 67 2.3 WSW 33 52 18 28 1006.1 1006.1 0.4
02/12:50am 8.8 1.5 0.3 55 3.4 W 28 48 15 26 1005.9 1005.9 0.4
02/12:30am 7.8 0.8 1.7 65 2.5 WNW 28 39 15 21 1005.6 1005.6 0.4
02/12:00am 7.8 1.6 2.3 68 2.3 W 24 39 13 21 1005.6 1005.6 0.4
 
Date/Time
EST
Temp
°C
App
Temp
°C
Dew
Point
Rel
Hum
%
Delta-T
°C
Wind Press
QNH
hPa
Press
MSL
hPa
Rain
since 9 am
mm
Dir
 
Spd
km/h
Gust
km/h
Spd
kts
Gust
kts
01/11:45pm 8.3 0.9 1.8 63 2.7 W 30 41 16 22 1006.1 1006.1 0.2
01/11:30pm 8.7 -0.1 1.1 59 3.1 WNW 37 50 20 27 1005.3 1005.3 0.2
01/11:00pm 8.3 0.5 1.8 63 2.7 WNW 32 46 17 25 1005.4 1005.4 0.2
01/10:30pm 8.7 0.8 1.1 59 3.1 WNW 32 44 17 24 1005.4 1005.4 0.2
01/10:00pm 8.4 0.9 1.0 59 3.0 NW 30 39 16 21 1005.7 1005.7 0.2

Other Formats:

Comma delimited format used in spreadsheet applications
http://www.bom.gov.au/fwo/IDT60801/IDT60801.94975.axf

JavaScript Object Notation format (JSON) in row-major order
http://www.bom.gov.au/fwo/IDT60801/IDT60801.94975.json